No Warnings, Watches, or Advisories

Active alerts


No alerts

Amazon Weather

Hours of Daylight

10 hrs 46 min 28 sec
of Daylight Today
44.9% Day 55.1% Night Which is
2 min 33 sec Shorter
Than Yesterday

South Webcam more information South Webcam


NorthWest Webcam more information NorthWest Webcam


You find our weather info also at:

UK Metoffice

Weather Underground

Mid-Atlantic Weather Network

WeatherlinkIP

Citizen Weather Observer Program (CWOP)

HAMweather, WeatherForYou, PWS Weather



Nearby METAR Reports

   
KDUJ - Du Bois, Pennsylvania, USA
Distance from station: NNE 16 mi
Updated: Oct 23 2019 3:53 am
Clear  
Clear  
   Wind: WSW 8.1 mph
Wind: WSW 8.1 mph
Temperature: 41°F
Wind Chill: 35.6°F
Dew Point: 37.4°F
Humidity: 87%
Barometer: 29.87 inHg
Clouds: Clear
Visibility: 10 mi
Cloud details: Clear
KDUJ 230753Z AUTO 24007KT 10SM CLR 05/03 A2987 RMK AO2 SLP121 T00500028
KIDI - Indiana/Stewart, Pennsylvania, USA
Distance from station: SSW 23 mi
Updated: Oct 23 2019 4:15 am
Mist, Partly Cloudy  
Mist, Partly Cloudy  
   Wind: Calm
Wind: Calm
Temperature: 42.8°F
Dew Point: 42.8°F
Humidity: 100%
Barometer: 29.95 inHg
Clouds: Partly Cloudy
Visibility: 3 mi
Cloud details: Partly Cloudy 7000 ft
KIDI 230815Z AUTO 00000KT 3/4SM BR SCT070 06/06 A2995 RMK A01
KFIG - Clearfield, Pennsylvania, USA
Distance from station: ENE 31 mi
Updated: Oct 23 2019 4:16 am
Mist, Overcast  
Mist, Overcast  
   Wind: SW 5.8 mph
Wind: SW 5.8 mph
Temperature: 42.8°F
Wind Chill: 39.2°F
Dew Point: 42.8°F
Humidity: 100%
Barometer: 29.89 inHg
Clouds: Overcast
Visibility: 1 mi
Cloud details: Overcast 100 ft
KFIG 230816Z AUTO 22005KT 1SM BR VV001 06/06 A2989 RMK AO2 T00610056
KJST - Johnstown, Pennsylvania, USA
Distance from station: S 44 mi
Updated: Oct 23 2019 3:54 am
Few Clouds  
Few Clouds  
   Wind: West 10.4 mph
Wind: West 10.4 mph
Temperature: 46.4°F
Wind Chill: 41°F
Dew Point: 39.2°F
Humidity: 76%
Barometer: 29.89 inHg
Clouds: Few Clouds
Visibility: 10 mi
Cloud details: Few Clouds 6000 ft
KJST 230754Z AUTO 27009KT 10SM FEW060 08/04 A2989 RMK AO2 SLP126 T00780039
KPIT - Pittsburgh, Pennsylvania, USA
Distance from station: WSW 74 mi
Updated: Oct 23 2019 3:51 am
Few Clouds  
Few Clouds  
   Wind: SW 5.8 mph
Wind: SW 5.8 mph
Temperature: 46.4°F
Wind Chill: 44.6°F
Dew Point: 39.2°F
Humidity: 76%
Barometer: 29.91 inHg
Clouds: Few Clouds
Visibility: 10 mi
Cloud details: Few Clouds 5000 ft,
Few Clouds 8000 ft
KPIT 230751Z 23005KT 10SM FEW050 FEW080 08/04 A2991 RMK AO2 SLP136 T00830039
KLBE - Latrobe/Westmorl, Pennsylvania, USA
Distance from station: SSW 52 mi
Updated: Oct 23 2019 4:15 am
Mostly Cloudy  
Mostly Cloudy  
   Wind: South 4.6 mph
Wind: South 4.6 mph
Temperature: 46.4°F
Wind Chill: 44.6°F
Dew Point: 46.4°F
Humidity: 100%
Barometer: 29.94 inHg
Clouds: Mostly Cloudy
Visibility: 10 mi
Cloud details: Few Clouds 5000 ft,
Partly Cloudy 7000 ft,
Mostly Cloudy 8000 ft
KLBE 230815Z AUTO 19004KT 10SM FEW050 SCT070 BKN080 08/08 A2994 RMK AO2
KBTP - Butler Co., Pennsylvania, USA
Distance from station: WSW 52 mi
Updated: Oct 23 2019 3:56 am
Clear  
Clear  
   Wind: SSW 3.5 mph
Wind: SSW 3.5 mph
Temperature: 42.8°F
Wind Chill: 41°F
Dew Point: 39.2°F
Humidity: 87%
Barometer: 29.91 inHg
Clouds: Clear
Visibility: 10 mi
Cloud details: Clear
KBTP 230756Z AUTO 20003KT 10SM CLR 06/04 A2991 RMK AO2 SLP136 T00560044
KUCP - New Castle Muni, Pennsylvania, USA
Distance from station: W 75 mi
Updated: Oct 23 2019 3:56 am
Clear  
Clear  
   Wind: WSW 5.8 mph
Wind: WSW 5.8 mph
Temperature: 46.4°F
Wind Chill: 44.6°F
Dew Point: 39.2°F
Humidity: 76%
Barometer: 29.9 inHg
Clouds: Clear
Visibility: 10 mi
Cloud details: Clear
KUCP 230756Z AUTO 24005KT 10SM CLR 08/04 A2990 RMK AO2 SLP140 T00780039 PNO $
KFKL - Franklin, Pennsylvania, USA
Distance from station: WNW 54 mi
Updated: Oct 23 2019 3:56 am
Clear  
Clear  
   Wind: WSW 5.8 mph
Wind: WSW 5.8 mph
Temperature: 42.8°F
Wind Chill: 39.2°F
Dew Point: 35.6°F
Humidity: 76%
Barometer: 29.88 inHg
Clouds: Clear
Visibility: 10 mi
Cloud details: Clear
KFKL 230756Z AUTO 24005KT 10SM CLR 06/02 A2988 RMK AO2 SLP122 T00610022
KAOO - Altoona, Pennsylvania, USA
Distance from station: SE 57 mi
Updated: Oct 23 2019 3:53 am
Clear  
Clear  
   Wind: Calm
Wind: Calm
Temperature: 44.6°F
Dew Point: 41°F
Humidity: 87%
Barometer: 29.9 inHg
Clouds: Clear
Visibility: 10 mi
Cloud details: Clear
KAOO 230753Z AUTO 00000KT 10SM CLR 07/05 A2990 RMK AO2 SLP127 T00720050
KUNV - State College, Pennsylvania, USA
Distance from station: E 61 mi
Updated: Oct 23 2019 4:18 am
Partly Cloudy  
Partly Cloudy  
   Wind: West 3.5 mph
Wind: West 3.5 mph
Temperature: 44.6°F
Wind Chill: 42.8°F
Dew Point: 44.6°F
Humidity: 100%
Barometer: 29.89 inHg
Clouds: Partly Cloudy
Visibility: 10 mi
Cloud details: Partly Cloudy 10000 ft
KUNV 230818Z AUTO 26003KT 10SM SCT100 07/07 A2989 RMK AO2 T00720072
KBFD - Bradford, Pennsylvania, USA
Distance from station: NNE 62 mi
Updated: Oct 23 2019 3:53 am
Clear  
Clear  
   Wind: WSW 3.5 mph
Wind: WSW 3.5 mph
Temperature: 44.6°F
Wind Chill: 42.8°F
Dew Point: 35.6°F
Humidity: 71%
Barometer: 29.85 inHg
Clouds: Clear
Visibility: 10 mi
Cloud details: Clear
KBFD 230753Z AUTO 24003KT 10SM CLR 07/02 A2985 RMK AO2 SLP112 T00670022

Script developed by  Saratoga-weather.org Adapted for the template by  Weerstation Leuven

Equipment we use:

Weather-station
Davis VP2

Weather-program
Cumulus

Weather-server
Dell Inspiron 3521

Provider
Host On A Rope

Davis VP2

Cumulus

Dell Inspiron 3521

Host On A Rope